Time;durP1;ratioP1;P1;durP2;ratioP2;P2;SDS_P1;SDS_P2;PMS_P1;PMS_P2;Temp;Humidity;BMP_temperature;BMP_pressure;BME280_temperature;BME280_humidity;BME280_pressure;Samples;Min_cycle;Max_cycle;Signal;HPM_P1;HPM_P2
2023/01/09 00:09:01;;;;;;;;;;;;;;;1.00;100.00;98424.34;431848;1259;147961;-64
2023/01/09 00:19:07;;;;;;;35.80;25.50;;;;;;;1.09;100.00;98404.30;443077;1256;128876;-64
2023/01/09 00:29:13;;;;;;;41.50;26.50;;;;;;;1.06;100.00;98383.91;448774;1254;152706;-63
2023/01/09 00:39:19;;;;;;;30.80;24.70;;;;;;;1.20;100.00;98381.91;439433;1256;142314;-63
2023/01/09 00:49:26;;;;;;;34.20;25.30;;;;;;;1.40;100.00;98388.46;435095;1256;143165;-64
2023/01/09 00:59:32;;;;;;;35.20;25.20;;;;;;;1.54;100.00;98391.25;434981;1259;143154;-63
2023/01/09 01:09:37;;;;;;;32.10;24.20;;;;;;;1.62;100.00;98396.05;435191;1256;141847;-63
2023/01/09 01:19:43;;;;;;;35.10;24.70;;;;;;;1.65;100.00;98384.70;433662;1260;142601;-62
2023/01/09 01:29:49;;;;;;;33.40;26.00;;;;;;;1.67;100.00;98382.02;436693;1260;142698;-63
2023/01/09 01:39:55;;;;;;;35.10;25.60;;;;;;;1.71;100.00;98377.89;437057;1256;141778;-62
2023/01/09 01:50:04;;;;;;;31.60;24.70;;;;;;;1.74;100.00;98362.21;436007;1260;195094;-63
2023/01/09 02:00:15;;;;;;;38.10;24.90;;;;;;;1.80;100.00;98358.16;434322;1260;141956;-63
2023/01/09 02:10:22;;;;;;;30.40;23.10;;;;;;;1.83;100.00;98337.27;435168;1260;210159;-64
2023/01/09 02:20:49;;;;;;;32.00;24.40;;;;;;;1.87;100.00;98331.39;436353;1259;142809;-64
2023/01/09 02:30:57;;;;;;;;;;;;;;;1.88;100.00;98325.63;438262;1255;143271;-63
2023/01/09 02:41:09;;;;;;;29.90;22.50;;;;;;;1.88;100.00;98318.41;434864;1257;128514;-63
2023/01/09 02:51:24;;;;;;;33.90;22.20;;;;;;;1.87;100.00;98308.77;438324;1259;153486;-63
2023/01/09 03:01:43;;;;;;;36.90;25.90;;;;;;;1.81;100.00;98305.81;435747;1257;141239;-63
2023/01/09 03:11:53;;;;;;;37.60;23.80;;;;;;;1.71;100.00;98288.35;434570;1259;145618;-63
2023/01/09 03:22:00;;;;;;;34.10;23.80;;;;;;;1.48;100.00;98273.36;434884;1260;145250;-63
2023/01/09 03:32:07;;;;;;;32.70;24.70;;;;;;;1.31;100.00;98262.27;433194;1259;142194;-63
2023/01/09 03:42:11;;;;;;;;;;;;;;;1.20;100.00;98263.48;431061;1260;142488;-63
2023/01/09 03:52:17;;;;;;;33.70;22.90;;;;;;;1.08;100.00;98261.77;437289;1256;128054;-64
2023/01/09 04:02:22;;;;;;;32.00;24.60;;;;;;;1.02;100.00;98255.54;436995;1256;142785;-64
2023/01/09 04:12:28;;;;;;;31.30;23.50;;;;;;;0.97;100.00;98243.16;448147;1256;143818;-63
2023/01/09 04:22:34;;;;;;;35.10;26.00;;;;;;;1.01;100.00;98238.50;432057;1258;143435;-63
2023/01/09 04:32:40;;;;;;;37.80;27.30;;;;;;;0.99;100.00;98236.90;436611;1257;143509;-63
2023/01/09 04:42:46;;;;;;;36.10;26.30;;;;;;;0.93;100.00;98233.86;446949;1256;142119;-63
2023/01/09 04:52:52;;;;;;;36.90;25.30;;;;;;;0.95;100.00;98220.67;445647;1257;146442;-63
2023/01/09 05:02:58;;;;;;;34.90;26.90;;;;;;;1.00;100.00;98212.21;448941;1256;142119;-64
2023/01/09 05:13:03;;;;;;;44.40;27.90;;;;;;;1.03;100.00;98196.88;448131;1258;143432;-64
2023/01/09 05:23:09;;;;;;;36.10;25.40;;;;;;;1.04;100.00;98197.18;448908;1255;142541;-63
2023/01/09 05:33:15;;;;;;;36.60;28.70;;;;;;;1.00;100.00;98192.70;448113;1256;152139;-64
2023/01/09 05:43:21;;;;;;;38.80;28.60;;;;;;;0.97;100.00;98178.17;449304;1254;142656;-64
2023/01/09 05:53:27;;;;;;;34.60;24.90;;;;;;;1.01;100.00;98179.77;449726;1254;142509;-64
2023/01/09 06:03:33;;;;;;;36.20;28.00;;;;;;;1.04;100.00;98160.81;448913;1254;143392;-63
2023/01/09 06:13:38;;;;;;;41.10;28.00;;;;;;;1.06;100.00;98153.66;449640;1254;142661;-63
2023/01/09 06:23:44;;;;;;;35.60;25.20;;;;;;;1.05;100.00;98145.42;449739;1254;141252;-63
2023/01/09 06:33:50;;;;;;;40.10;28.20;;;;;;;1.07;100.00;98141.73;448938;1254;142739;-63
2023/01/09 06:43:56;;;;;;;46.80;31.90;;;;;;;1.12;100.00;98133.55;449513;1254;142662;-64
2023/01/09 06:54:01;;;;;;;39.90;29.60;;;;;;;1.19;100.00;98127.53;449830;1254;142965;-64
2023/01/09 07:04:09;;;;;;;43.50;28.90;;;;;;;1.25;100.00;98121.35;449032;1254;144295;-64
2023/01/09 07:14:15;;;;;;;38.80;29.60;;;;;;;1.32;100.00;98116.73;449843;1254;141766;-64
2023/01/09 07:24:20;;;;;;;33.90;26.30;;;;;;;1.39;100.00;98113.11;448722;1254;189066;-64
2023/01/09 07:34:26;;;;;;;36.30;28.30;;;;;;;1.47;100.00;98110.64;449800;1253;142571;-64
2023/01/09 07:44:32;;;;;;;42.70;29.20;;;;;;;1.58;100.00;98113.54;449997;1253;143995;-63
2023/01/09 07:54:38;;;;;;;41.20;28.50;;;;;;;1.75;100.00;98118.38;449298;1253;143577;-63
2023/01/09 08:04:43;;;;;;;40.20;29.60;;;;;;;1.96;100.00;98108.81;449987;1254;141836;-64
2023/01/09 08:14:50;;;;;;;43.90;30.30;;;;;;;2.17;100.00;98100.63;449932;1253;142893;-64
2023/01/09 08:24:56;;;;;;;41.10;29.40;;;;;;;2.35;100.00;98093.84;448857;1253;145596;-64
2023/01/09 08:35:01;;;;;;;41.10;31.00;;;;;;;2.48;100.00;98089.35;449725;1253;142571;-64
2023/01/09 08:55:33;;;;;;;38.20;27.60;;;;;;;2.63;100.00;98089.35;449432;1254;214153;-63
2023/01/09 09:05:38;;;;;;;41.00;30.40;;;;;;;2.76;100.00;98096.79;449690;1254;142434;-63
2023/01/09 09:15:44;;;;;;;36.20;29.10;;;;;;;2.91;100.00;98098.23;448893;1254;142948;-63
2023/01/09 09:25:50;;;;;;;34.10;27.50;;;;;;;3.04;100.00;98092.40;449704;1254;142906;-63
2023/01/09 09:35:58;;;;;;;33.30;28.90;;;;;;;3.14;100.00;98068.37;449652;1254;142507;-64
2023/01/09 09:46:09;;;;;;;35.40;27.60;;;;;;;3.23;100.00;98052.14;448867;1254;142690;-64
2023/01/09 09:56:18;;;;;;;35.90;27.00;;;;;;;3.29;100.00;98033.45;450131;1253;142724;-63
2023/01/09 10:06:30;;;;;;;35.30;26.40;;;;;;;3.39;100.00;98024.39;449133;1253;142653;-63
2023/01/09 10:16:57;;;;;;;29.30;24.40;;;;;;;3.50;100.00;98005.88;449844;1253;200022;-64
2023/01/09 10:27:02;;;;;;;;;;;;;;;3.67;100.00;97992.27;449826;1254;142546;-62
2023/01/09 10:37:13;;;;;;;28.70;23.20;;;;;;;3.80;100.00;97970.02;449309;1254;131169;-63
2023/01/09 10:47:25;;;;;;;29.90;22.50;;;;;;;3.91;100.00;97947.33;449695;1254;142734;-64
2023/01/09 10:57:42;;;;;;;26.50;21.00;;;;;;;4.00;100.00;97934.46;449792;1250;141556;-63
2023/01/09 11:07:53;;;;;;;26.40;20.70;;;;;;;4.12;100.00;97919.32;450509;1251;143198;-62
2023/01/09 11:18:25;;;;;;;25.50;19.20;;;;;;;4.27;100.00;97909.37;450457;1250;145968;-63
2023/01/09 11:28:31;;;;;;;23.00;19.40;;;;;;;4.48;100.00;97904.73;449881;1250;212690;-63
2023/01/09 11:38:50;;;;;;;18.50;14.90;;;;;;;4.69;100.00;97900.40;450695;1250;142922;-63
2023/01/09 11:48:58;;;;;;;19.20;15.00;;;;;;;5.03;100.00;97894.99;449931;1250;143861;-63
2023/01/09 11:59:08;;;;;;;17.60;15.00;;;;;;;5.33;100.00;97893.29;450693;1250;142622;-62
2023/01/09 12:09:20;;;;;;;17.10;14.20;;;;;;;5.45;100.00;97886.58;449861;1250;142517;-63
2023/01/09 12:19:46;;;;;;;18.80;14.00;;;;;;;5.52;100.00;97886.25;450577;1250;142600;-62
2023/01/09 12:30:22;;;;;;;15.60;13.50;;;;;;;5.57;100.00;97888.00;450807;1249;141847;-63
2023/01/09 12:40:46;;;;;;;17.50;14.90;;;;;;;5.61;100.00;97878.52;450077;1251;211247;-62
2023/01/09 12:51:07;;;;;;;17.00;14.10;;;;;;;5.59;100.00;97886.82;441877;1251;143035;-63
2023/01/09 13:01:17;;;;;;;21.70;17.50;;;;;;;5.53;100.00;97883.60;449961;1251;197299;-63
2023/01/09 13:11:28;;;;;;;18.40;16.00;;;;;;;5.48;100.00;97882.40;450299;1250;143037;-63
2023/01/09 13:21:34;;;;;;;20.40;17.10;;;;;;;5.43;100.00;97879.57;449777;1250;143322;-65
2023/01/09 13:32:08;;;;;;;21.10;18.30;;;;;;;5.41;100.00;97871.54;450585;1250;142206;-64
2023/01/09 13:52:43;;;;;;;22.00;18.90;;;;;;;5.39;100.00;97885.92;450704;1250;142594;-62
2023/01/09 14:02:57;;;;;;;25.30;20.60;;;;;;;5.42;100.00;97894.91;450716;1250;142579;-63
2023/01/09 14:13:12;;;;;;;28.10;23.50;;;;;;;5.42;100.00;97903.99;449742;1251;141637;-62
2023/01/09 14:23:23;;;;;;;26.90;21.20;;;;;;;5.39;100.00;97917.70;450658;1251;142550;-63
2023/01/09 14:33:50;;;;;;;39.10;28.60;;;;;;;5.43;100.00;97940.52;449810;1251;142287;-63
2023/01/09 14:44:02;;;;;;;40.00;28.30;;;;;;;5.48;100.00;97950.26;450548;1251;143846;-64
2023/01/09 14:54:23;;;;;;;33.80;23.20;;;;;;;5.53;100.00;97950.90;450598;1250;143126;-62
2023/01/09 15:04:33;;;;;;;40.70;27.80;;;;;;;5.58;100.00;97960.33;450252;1250;207493;-63
2023/01/09 15:14:44;;;;;;;30.60;22.60;;;;;;;5.64;100.00;97970.52;450514;1252;142270;-63
2023/01/09 15:25:41;;;;;;;28.90;22.60;;;;;;;5.65;100.00;97983.77;449534;1252;142351;-63
2023/01/09 15:35:50;;;;;;;20.00;17.60;;;;;;;5.69;100.00;98009.04;450486;1251;144183;-63
2023/01/09 15:45:56;;;;;;;17.90;14.00;;;;;;;5.69;100.00;98022.22;449744;1249;141186;-63
2023/01/09 15:56:16;;;;;;;20.50;15.80;;;;;;;5.68;100.00;98037.61;450305;1251;142712;-63
2023/01/09 16:06:26;;;;;;;12.30;9.60;;;;;;;5.65;100.00;98061.58;449502;1251;142798;-64
2023/01/09 16:16:34;;;;;;;13.40;9.20;;;;;;;5.59;100.00;98068.56;450401;1250;142396;-63
2023/01/09 16:26:40;;;;;;;17.30;12.40;;;;;;;5.52;100.00;98073.38;450528;1249;144977;-64
2023/01/09 16:36:46;;;;;;;12.10;9.30;;;;;;;5.44;100.00;98071.48;449639;1254;185338;-63
2023/01/09 16:46:52;;;;;;;11.60;9.80;;;;;;;5.28;100.00;98060.19;450375;1250;142530;-63
2023/01/09 16:56:58;;;;;;;14.00;10.90;;;;;;;5.28;100.00;98074.98;442758;1251;142362;-64
2023/01/09 17:07:04;;;;;;;17.00;11.80;;;;;;;5.29;100.00;98095.70;435393;1250;143814;-62
2023/01/09 17:17:12;;;;;;;14.10;11.70;;;;;;;5.27;100.00;98109.05;450320;1250;142628;-63
2023/01/09 17:37:46;;;;;;;17.10;12.70;;;;;;;5.23;100.00;98130.45;450486;1250;143380;-64
2023/01/09 17:47:52;;;;;;;18.10;13.70;;;;;;;5.21;100.00;98144.66;450529;1250;143089;-64
2023/01/09 17:57:57;;;;;;;18.90;13.20;;;;;;;5.21;100.00;98163.43;449718;1250;143451;-62
2023/01/09 18:08:04;;;;;;;17.20;13.30;;;;;;;5.17;100.00;98172.63;450348;1251;142388;-64
2023/01/09 18:18:11;;;;;;;16.90;13.80;;;;;;;5.15;100.00;98188.58;450536;1250;145487;-64
2023/01/09 18:28:17;;;;;;;20.80;15.90;;;;;;;5.16;100.00;98211.61;450252;1251;208634;-64
2023/01/09 18:38:23;;;;;;;21.10;14.80;;;;;;;5.16;100.00;98219.35;450392;1251;142105;-65
2023/01/09 18:48:29;;;;;;;24.10;17.70;;;;;;;5.16;100.00;98232.08;449784;1251;141785;-66
2023/01/09 18:58:35;;;;;;;24.40;16.30;;;;;;;5.15;100.00;98235.94;450519;1253;144620;-64
2023/01/09 19:08:41;;;;;;;21.60;17.00;;;;;;;5.19;100.00;98236.72;441802;1254;142222;-65
2023/01/09 19:18:47;;;;;;;21.30;15.70;;;;;;;5.19;100.00;98229.77;443960;1252;142050;-63
2023/01/09 19:28:56;;;;;;;19.60;15.00;;;;;;;5.22;100.00;98238.95;450489;1252;142028;-63
2023/01/09 19:39:03;;;;;;;17.10;13.70;;;;;;;5.22;100.00;98254.96;447938;1252;142933;-63
2023/01/09 19:49:09;;;;;;;18.90;14.80;;;;;;;5.20;100.00;98271.88;441759;1252;143783;-63
2023/01/09 19:59:14;;;;;;;18.30;14.10;;;;;;;5.21;100.00;98280.51;450372;1254;144089;-64
2023/01/09 20:09:24;;;;;;;19.90;14.20;;;;;;;5.22;100.00;98282.70;449717;1251;144370;-63
2023/01/09 20:19:31;;;;;;;17.20;13.70;;;;;;;5.20;100.00;98302.07;450363;1250;145101;-64
2023/01/09 20:29:37;;;;;;;22.40;15.30;;;;;;;5.13;100.00;98322.09;450543;1251;143340;-63
2023/01/09 20:39:42;;;;;;;20.20;15.40;;;;;;;5.09;100.00;98342.28;449757;1251;200699;-63
2023/01/09 20:49:48;;;;;;;20.00;15.10;;;;;;;5.09;100.00;98355.50;446624;1251;142700;-64
2023/01/09 20:59:54;;;;;;;20.70;15.30;;;;;;;5.07;100.00;98368.63;439092;1253;141464;-64
2023/01/09 21:10:00;;;;;;;20.60;16.30;;;;;;;5.05;100.00;98373.24;449638;1251;144700;-63
2023/01/09 21:20:09;;;;;;;20.00;14.50;;;;;;;5.04;100.00;98390.83;445886;1251;142460;-64
2023/01/09 21:30:15;;;;;;;18.80;15.30;;;;;;;5.07;100.00;98406.59;449357;1251;143611;-64
2023/01/09 21:40:21;;;;;;;15.90;13.20;;;;;;;5.05;100.00;98414.69;449991;1251;144019;-63
2023/01/09 21:50:26;;;;;;;17.40;13.80;;;;;;;5.06;100.00;98435.63;443026;1253;147440;-64
2023/01/09 22:00:33;;;;;;;19.70;15.10;;;;;;;5.04;100.00;98452.75;438606;1251;143057;-63
2023/01/09 22:10:38;;;;;;;18.50;14.90;;;;;;;5.01;100.00;98466.82;450375;1253;143086;-63
2023/01/09 22:20:46;;;;;;;19.80;16.50;;;;;;;5.03;100.00;98462.14;450242;1253;143752;-63
2023/01/09 22:30:50;;;;;;;;;;;;;;;4.99;100.00;98467.42;449400;1251;142205;-62
2023/01/09 22:40:56;;;;;;;25.60;17.30;;;;;;;4.81;100.00;98471.60;450530;1251;129265;-63
2023/01/09 22:51:03;;;;;;;22.00;17.00;;;;;;;4.82;100.00;98478.85;449887;1251;142961;-63
2023/01/09 23:01:11;;;;;;;19.10;15.40;;;;;;;4.78;100.00;98493.05;449415;1251;145028;-63
2023/01/09 23:12:00;;;;;;;20.10;14.90;;;;;;;4.55;100.00;98502.02;450258;1251;142699;-63
2023/01/09 23:21:46;;;;;;;23.50;18.20;;;;;;;4.33;100.00;98506.03;439946;1251;143783;-63
2023/01/09 23:31:53;;;;;;;22.00;17.90;;;;;;;3.99;100.00;98508.56;442921;1252;143597;-64
2023/01/09 23:52:22;;;;;;;25.80;19.20;;;;;;;3.46;100.00;98539.21;440318;1251;198247;-63
